Portada
METAR-TAF:

METAR-TAF

Aeroports :

In Aménas, Algèria

latitud: 28-03N, longitud: 009-38E, altitud: 562 m

Observació

L'informe es va fer fa 37 minuts, a les 11:00 UTC
Vent 11 kt del Sud-Est
Temperatura 38°C
Pressió 1016 hPa
Visibilitat: 8000 m

METAR: DAUZ 171100Z 14011KT 8000 NSC 38/// Q1016

Hora: 12:37 (11:37 UTC)

Pronòstic

L'informe es va fer fa 6 hores i 37 minuts, a les 05:00 UTC
Pronòstic vàlid del 17 a les 06 UTC al 18 a les 06 UTC
Vent 10 kt del Est
Visibilitat: 8000 m
Probabilitat 40% :
Temporalment
l' 17 a les 14 UTC al 17 a les 18 UTC
Vent 22 kt del Est/Sud-Est
Visibilitat: 3000 m
torb baixa de sorra
Evolucionant progressivament
l' 17 a les 22 UTC al 18 a les 01 UTC
Vent 2 kt amb direcció variable

TAF: DAUZ 170500Z 1706/1806 09010KT 8000 NSC PROB40 TEMPO 1714/1718 12022KT 3000 DRSA BECMG 1722/1801 VRB02KT

Observacions i pronòstics meteorològics de més de 4000 aeroports (METAR i TAF).

Les estacions disponibles són els punts grocs i vermells al mapa.

Posi el ratolí al punt desitjat per veure el nom de l'estació.

Feu clic per veure les observacions i els pronòstics meteorològics.

Per canviar el mapa: feu clic els botons verds amb una creu de color negre per apropar; al botó verd amb un guió per allunyar la imatge; o en les fletxes verdes per a mapes adjacents.


METAR-TAF: